createdAt,value
2023-01-21T00:01:21.761Z,97438.59
2023-01-21T00:04:23.286Z,97440.69
2023-01-21T00:07:29.862Z,97438.31
2023-01-21T00:10:31.406Z,97440.91
2023-01-21T00:13:34.734Z,97448.53
2023-01-21T00:16:36.285Z,97449.56
2023-01-21T00:19:38.339Z,97444.47
2023-01-21T00:22:39.825Z,97440.06
2023-01-21T00:25:41.489Z,97436.72
2023-01-21T00:28:44.148Z,97433.47
2023-01-21T00:31:45.740Z,97437.94
2023-01-21T00:34:47.613Z,97432.03
2023-01-21T00:37:51.325Z,97433.53
2023-01-21T00:40:52.879Z,97425.00
2023-01-21T00:43:55.110Z,97430.09
2023-01-21T00:46:56.580Z,97429.41
2023-01-21T00:49:58.126Z,97433.59
2023-01-21T00:52:59.740Z,97435.97
2023-01-21T00:56:03.364Z,97434.47
2023-01-21T00:59:05.025Z,97425.25
2023-01-21T01:02:06.720Z,97435.28
2023-01-21T01:05:08.639Z,97440.53
2023-01-21T01:08:10.200Z,97440.91
2023-01-21T01:11:13.179Z,97440.47
2023-01-21T01:14:14.730Z,97446.00
2023-01-21T01:17:16.233Z,97444.19
2023-01-21T01:20:18.190Z,97446.84
2023-01-21T01:23:20.054Z,97445.41
2023-01-21T01:26:22.357Z,97455.25
2023-01-21T01:29:24.012Z,97452.75
2023-01-21T01:32:25.512Z,97451.22
2023-01-21T01:35:27.678Z,97454.75
2023-01-21T01:38:29.387Z,97461.16
2023-01-21T01:41:35.022Z,97460.19
2023-01-21T01:44:57.681Z,97466.19
2023-01-21T01:48:03.113Z,97451.25
2023-01-21T01:51:07.494Z,97463.44
2023-01-21T01:54:10.181Z,97460.19
2023-01-21T01:57:14.694Z,97447.13
2023-01-21T02:00:17.228Z,97466.66
2023-01-21T02:03:37.680Z,97458.81
2023-01-21T02:06:40.834Z,97458.13
2023-01-21T02:09:42.489Z,97461.69
2023-01-21T02:12:44.488Z,97464.41
2023-01-21T02:16:02.451Z,97464.28
2023-01-21T02:19:10.108Z,97466.09
2023-01-21T02:22:29.951Z,97464.72
2023-01-21T02:26:05.224Z,97463.03
2023-01-21T02:29:31.731Z,97457.00
2023-01-21T02:32:54.284Z,97461.00
2023-01-21T02:36:10.491Z,97455.66
2023-01-21T02:39:20.909Z,97459.06
2023-01-21T02:42:40.090Z,97450.00
2023-01-21T02:45:49.430Z,97467.75
2023-01-21T02:48:58.474Z,97465.97
2023-01-21T02:51:59.943Z,97466.09
2023-01-21T02:55:02.365Z,97474.34
2023-01-21T02:58:17.560Z,97469.78
2023-01-21T03:01:27.585Z,97482.81
2023-01-21T03:04:36.847Z,97481.44
2023-01-21T03:07:59.414Z,97488.13
2023-01-21T03:11:13.134Z,97489.84
2023-01-21T03:14:44.925Z,97472.66
2023-01-21T03:17:56.233Z,97484.72
2023-01-21T03:21:08.841Z,97473.03
2023-01-21T03:24:12.825Z,97480.44
2023-01-21T03:27:16.572Z,97478.03
2023-01-21T03:30:21.846Z,97479.78
2023-01-21T03:33:24.580Z,97480.72
2023-01-21T03:36:31.719Z,97476.66
2023-01-21T03:39:54.929Z,97475.81
2023-01-21T03:42:56.687Z,97478.19
2023-01-21T03:46:13.798Z,97467.56
2023-01-21T03:49:26.716Z,97472.16
2023-01-21T03:52:28.702Z,97461.44
2023-01-21T03:55:30.212Z,97465.06
2023-01-21T03:58:31.710Z,97471.06
2023-01-21T04:01:33.223Z,97474.34
2023-01-21T04:04:34.751Z,97476.13
2023-01-21T04:07:36.379Z,97472.59
2023-01-21T04:10:37.973Z,97474.53
2023-01-21T04:13:39.682Z,97475.56
2023-01-21T04:16:41.221Z,97470.69
2023-01-21T04:19:42.727Z,97477.38
2023-01-21T04:22:44.306Z,97491.28
2023-01-21T04:25:48.439Z,97484.25
2023-01-21T04:28:50.036Z,97489.97
2023-01-21T04:31:51.632Z,97489.91
2023-01-21T04:34:53.285Z,97494.38
2023-01-21T04:37:54.828Z,97496.66
2023-01-21T04:40:56.457Z,97490.03
2023-01-21T04:43:58.101Z,97501.03
2023-01-21T04:46:59.706Z,97498.53
2023-01-21T04:50:02.188Z,97502.84
2023-01-21T04:53:03.752Z,97504.50
2023-01-21T04:56:05.647Z,97502.28
2023-01-21T04:59:07.116Z,97503.50
2023-01-21T05:02:08.669Z,97512.00
2023-01-21T05:05:10.281Z,97512.84
2023-01-21T05:08:11.833Z,97506.38
2023-01-21T05:11:19.280Z,97517.53
2023-01-21T05:14:20.767Z,97527.13
2023-01-21T05:17:22.268Z,97521.09
2023-01-21T05:20:23.910Z,97530.50
2023-01-21T05:23:25.604Z,97532.09
2023-01-21T05:26:27.123Z,97535.44
2023-01-21T05:29:28.606Z,97536.31
2023-01-21T05:32:30.217Z,97543.28
2023-01-21T05:35:34.637Z,97543.22
2023-01-21T05:38:36.142Z,97550.06
2023-01-21T05:41:37.663Z,97543.28
2023-01-21T05:44:39.163Z,97539.69
2023-01-21T05:47:40.781Z,97552.63
2023-01-21T05:50:42.270Z,97549.28
2023-01-21T05:53:43.819Z,97556.38
2023-01-21T05:56:45.305Z,97558.16
2023-01-21T05:59:47.070Z,97558.94
2023-01-21T06:02:48.685Z,97559.88
2023-01-21T06:05:50.772Z,97566.06
2023-01-21T06:08:52.264Z,97559.25
2023-01-21T06:11:53.852Z,97570.38
2023-01-21T06:14:55.472Z,97564.59
2023-01-21T06:17:57.012Z,97565.25
2023-01-21T06:21:01.592Z,97576.31
2023-01-21T06:24:03.259Z,97571.47
2023-01-21T06:27:04.755Z,97571.66
2023-01-21T06:30:07.546Z,97581.06
2023-01-21T06:33:09.094Z,97586.91
2023-01-21T06:36:10.582Z,97583.31
2023-01-21T06:39:12.183Z,97591.81
2023-01-21T06:42:13.732Z,97584.19
2023-01-21T06:45:16.156Z,97591.09
2023-01-21T06:48:17.614Z,97598.75
2023-01-21T06:51:19.290Z,97598.69
2023-01-21T06:54:20.865Z,97605.63
2023-01-21T06:57:22.461Z,97604.16
2023-01-21T07:00:24.039Z,97606.03
2023-01-21T07:03:25.582Z,97607.03
2023-01-21T07:06:27.519Z,97616.25
2023-01-21T07:09:29.040Z,97614.56
2023-01-21T07:12:30.625Z,97621.13
2023-01-21T07:15:32.230Z,97618.69
2023-01-21T07:18:34.045Z,97632.09
2023-01-21T07:21:35.656Z,97627.66
2023-01-21T07:24:37.183Z,97626.88
2023-01-21T07:27:40.493Z,97632.97
2023-01-21T07:30:42.091Z,97632.19
2023-01-21T07:33:43.633Z,97634.34
2023-01-21T07:36:45.279Z,97632.84
2023-01-21T07:39:47.270Z,97630.66
2023-01-21T07:42:53.070Z,97641.03
2023-01-21T07:45:58.005Z,97637.91
2023-01-21T07:49:01.600Z,97644.13
2023-01-21T07:52:03.367Z,97640.28
2023-01-21T07:55:06.121Z,97641.44
2023-01-21T07:58:07.720Z,97643.22
2023-01-21T08:01:10.036Z,97659.88
2023-01-21T08:04:11.575Z,97655.75
2023-01-21T08:07:13.393Z,97648.38
2023-01-21T08:10:15.670Z,97653.22
2023-01-21T08:13:17.225Z,97654.44
2023-01-21T08:16:18.858Z,97650.22
2023-01-21T08:19:20.468Z,97656.69
2023-01-21T08:22:22.026Z,97661.63
2023-01-21T08:25:23.558Z,97657.28
2023-01-21T08:28:25.096Z,97666.50
2023-01-21T08:31:26.724Z,97675.47
2023-01-21T08:34:29.452Z,97671.53
2023-01-21T08:37:32.497Z,97673.41
2023-01-21T08:40:34.923Z,97687.31
2023-01-21T08:43:36.972Z,97686.19
2023-01-21T08:46:38.542Z,97684.94
2023-01-21T08:49:40.182Z,97684.34
2023-01-21T08:52:42.094Z,97695.38
2023-01-21T08:55:43.983Z,97693.13
2023-01-21T08:58:45.777Z,97691.38
2023-01-21T09:01:47.329Z,97701.09
2023-01-21T09:04:50.569Z,97704.34
2023-01-21T09:07:52.110Z,97696.22
2023-01-21T09:11:01.334Z,97700.16
2023-01-21T09:14:04.166Z,97698.63
2023-01-21T09:17:05.784Z,97698.97
2023-01-21T09:20:07.914Z,97700.50
2023-01-21T09:23:25.335Z,97705.38
2023-01-21T09:26:27.212Z,97704.97
2023-01-21T09:29:28.924Z,97708.22
2023-01-21T09:32:44.244Z,97713.25
2023-01-21T09:35:56.484Z,97714.53
2023-01-21T09:38:58.697Z,97717.75
2023-01-21T09:42:00.278Z,97717.56
2023-01-21T09:45:04.109Z,97718.09
2023-01-21T09:48:08.172Z,97719.19
2023-01-21T09:51:20.883Z,97719.75
2023-01-21T09:54:28.737Z,97723.72
2023-01-21T09:57:58.349Z,97721.53
2023-01-21T10:01:31.530Z,97719.22
2023-01-21T10:04:43.926Z,97717.25
2023-01-21T10:08:08.492Z,97713.38
2023-01-21T10:11:28.069Z,97713.91
2023-01-21T10:14:29.476Z,97717.22
2023-01-21T10:17:42.152Z,97721.38
2023-01-21T10:20:57.344Z,97717.16
2023-01-21T10:24:14.419Z,97712.75
2023-01-21T10:27:22.480Z,97708.53
2023-01-21T10:30:38.024Z,97709.09
2023-01-21T10:33:39.706Z,97704.16
2023-01-21T10:36:41.327Z,97704.22
2023-01-21T10:40:10.652Z,97700.06
2023-01-21T10:43:46.653Z,97694.09
2023-01-21T10:47:00.342Z,97692.06
2023-01-21T10:50:29.573Z,97693.69
2023-01-21T10:53:39.741Z,97692.72
2023-01-21T10:56:51.975Z,97685.22
2023-01-21T11:00:04.244Z,97684.38
2023-01-21T11:03:24.381Z,97688.94
2023-01-21T11:06:28.940Z,97691.94
2023-01-21T11:09:38.601Z,97680.44
2023-01-21T11:12:40.136Z,97678.66
2023-01-21T11:15:52.715Z,97667.34
2023-01-21T11:18:54.554Z,97667.09
2023-01-21T11:22:18.116Z,97670.88
2023-01-21T11:25:41.076Z,97664.94
2023-01-21T11:28:42.575Z,97664.97
2023-01-21T11:31:48.494Z,97661.16
2023-01-21T11:34:57.338Z,97655.06
2023-01-21T11:37:58.990Z,97644.47
2023-01-21T11:41:04.298Z,97638.34
2023-01-21T11:44:24.919Z,97641.06
2023-01-21T11:47:47.846Z,97636.53
2023-01-21T11:50:49.370Z,97633.91
2023-01-21T11:54:16.943Z,97641.50
2023-01-21T11:57:31.265Z,97634.81
2023-01-21T12:00:36.058Z,97644.16
2023-01-21T12:03:42.734Z,97643.59
2023-01-21T12:06:48.128Z,97622.88
2023-01-21T12:10:13.022Z,97640.38
2023-01-21T12:13:47.039Z,97637.97
2023-01-21T12:17:09.544Z,97625.59
2023-01-21T12:20:17.221Z,97634.84
2023-01-21T12:23:44.871Z,97647.44
2023-01-21T12:27:11.765Z,97631.69
2023-01-21T12:30:25.417Z,97627.69
2023-01-21T12:33:29.722Z,97630.78
2023-01-21T12:36:45.824Z,97627.06
2023-01-21T12:39:50.339Z,97633.28
2023-01-21T12:42:56.096Z,97630.66
2023-01-21T12:46:06.165Z,97633.25
2023-01-21T12:49:17.692Z,97637.97
2023-01-21T12:52:26.793Z,97646.28
2023-01-21T12:55:58.174Z,97645.44
2023-01-21T12:59:15.407Z,97657.84
2023-01-21T13:02:46.136Z,97660.47
2023-01-21T13:05:55.730Z,97664.31
2023-01-21T13:09:07.563Z,97671.00
2023-01-21T13:12:20.579Z,97672.03
2023-01-21T13:15:28.109Z,97675.25
2023-01-21T13:18:34.844Z,97693.66
2023-01-21T13:21:43.725Z,97694.78
2023-01-21T13:25:21.092Z,97706.63
2023-01-21T13:28:37.482Z,97716.66
2023-01-21T13:31:48.789Z,97706.72
2023-01-21T13:35:12.899Z,97709.03
2023-01-21T13:38:20.261Z,97716.13
2023-01-21T13:41:52.898Z,97728.91
2023-01-21T13:45:27.597Z,97721.19
2023-01-21T13:48:57.532Z,97727.66
2023-01-21T13:52:14.893Z,97727.03
2023-01-21T13:55:36.088Z,97733.28
2023-01-21T13:58:59.512Z,97722.06
2023-01-21T14:02:15.255Z,97727.66
2023-01-21T14:05:19.914Z,97715.88
2023-01-21T14:08:28.446Z,97727.25
2023-01-21T14:11:38.494Z,97736.94
2023-01-21T14:15:16.064Z,97736.19
2023-01-21T14:18:39.121Z,97734.72
2023-01-21T14:22:05.781Z,97734.84
2023-01-21T14:25:26.270Z,97738.06
2023-01-21T14:28:58.420Z,97738.59
2023-01-21T14:32:20.569Z,97733.50
2023-01-21T14:35:28.259Z,97735.69
2023-01-21T14:38:39.982Z,97735.25
2023-01-21T14:42:04.526Z,97740.44
2023-01-21T14:45:08.218Z,97746.81
2023-01-21T14:48:34.855Z,97731.06
2023-01-21T14:51:42.516Z,97746.69
2023-01-21T14:54:46.144Z,97753.53
2023-01-21T14:57:52.733Z,97757.09
2023-01-21T15:00:54.358Z,97758.22
2023-01-21T15:03:57.967Z,97761.44
2023-01-21T15:07:06.466Z,97767.97
2023-01-21T15:10:17.950Z,97762.84
2023-01-21T15:13:37.937Z,97769.59
2023-01-21T15:16:44.527Z,97771.06
2023-01-21T15:19:57.219Z,97770.97
2023-01-21T15:23:29.691Z,97773.47
2023-01-21T15:26:32.717Z,97776.81
2023-01-21T15:29:36.853Z,97777.13
2023-01-21T15:32:50.089Z,97784.38
2023-01-21T15:35:54.176Z,97784.13
2023-01-21T15:39:01.997Z,97787.31
2023-01-21T15:42:55.219Z,97794.63
2023-01-21T15:46:08.979Z,97796.19
2023-01-21T15:49:40.585Z,97795.66
2023-01-21T15:53:28.488Z,97793.69
2023-01-21T15:56:44.878Z,97797.13
2023-01-21T16:00:25.493Z,97791.72
2023-01-21T16:03:32.873Z,97796.66
2023-01-21T16:06:37.211Z,97793.00
2023-01-21T16:10:17.104Z,97802.59
2023-01-21T16:13:45.361Z,97810.38
2023-01-21T16:17:06.929Z,97810.66
2023-01-21T16:20:11.520Z,97807.91
2023-01-21T16:23:17.175Z,97818.13
2023-01-21T16:26:30.878Z,97816.53
2023-01-21T16:29:38.547Z,97820.00
2023-01-21T16:32:40.138Z,97816.53
2023-01-21T16:35:45.951Z,97815.63
2023-01-21T16:38:48.521Z,97813.66
2023-01-21T16:42:01.226Z,97818.56
2023-01-21T16:45:22.403Z,97816.34
2023-01-21T16:48:27.571Z,97826.41
2023-01-21T16:51:34.572Z,97820.66
2023-01-21T16:54:48.749Z,97829.56
2023-01-21T16:57:52.665Z,97829.03
2023-01-21T17:01:02.467Z,97826.19
2023-01-21T17:04:05.102Z,97829.09
2023-01-21T17:07:32.660Z,97834.09
2023-01-21T17:10:39.008Z,97837.44
2023-01-21T17:13:43.132Z,97837.56
2023-01-21T17:16:44.644Z,97834.22
2023-01-21T17:19:49.779Z,97846.34
2023-01-21T17:22:51.344Z,97840.50
2023-01-21T17:25:57.386Z,97833.03
2023-01-21T17:29:07.722Z,97841.31
2023-01-21T17:32:31.385Z,97841.31
2023-01-21T17:35:33.551Z,97846.66
2023-01-21T17:38:40.989Z,97853.28
2023-01-21T17:41:46.219Z,97858.09
2023-01-21T17:44:57.053Z,97849.00
2023-01-21T17:48:08.966Z,97843.53
2023-01-21T17:51:16.228Z,97856.59
2023-01-21T17:54:23.498Z,97868.25
2023-01-21T17:57:35.942Z,97853.91
2023-01-21T18:00:45.820Z,97867.16
2023-01-21T18:03:47.460Z,97872.00
2023-01-21T18:06:50.777Z,97865.59
2023-01-21T18:09:54.343Z,97862.16
2023-01-21T18:12:58.199Z,97868.47
2023-01-21T18:15:59.887Z,97864.03
2023-01-21T18:19:01.604Z,97864.59
2023-01-21T18:22:06.037Z,97870.63
2023-01-21T18:25:07.829Z,97873.94
2023-01-21T18:28:21.554Z,97860.56
2023-01-21T18:31:23.500Z,97877.06
2023-01-21T18:34:25.367Z,97876.88
2023-01-21T18:37:27.061Z,97875.59
2023-01-21T18:40:28.679Z,97882.53
2023-01-21T18:43:31.089Z,97886.63
2023-01-21T18:46:32.668Z,97881.44
2023-01-21T18:49:34.202Z,97892.75
2023-01-21T18:52:35.820Z,97892.34
2023-01-21T18:55:37.418Z,97894.22
2023-01-21T18:58:38.946Z,97895.03
2023-01-21T19:01:41.853Z,97896.41
2023-01-21T19:04:43.996Z,97897.16
2023-01-21T19:07:45.687Z,97899.28
2023-01-21T19:10:47.492Z,97895.97
2023-01-21T19:13:49.021Z,97899.13
2023-01-21T19:16:50.719Z,97903.31
2023-01-21T19:19:56.161Z,97907.66
2023-01-21T19:22:57.907Z,97903.97
2023-01-21T19:25:59.762Z,97907.50
2023-01-21T19:29:03.592Z,97902.66
2023-01-21T19:32:05.477Z,97905.72
2023-01-21T19:35:07.547Z,97906.56
2023-01-21T19:38:18.954Z,97907.88
2023-01-21T19:41:20.755Z,97903.63
2023-01-21T19:44:22.387Z,97909.56
2023-01-21T19:47:28.689Z,97902.09
2023-01-21T19:50:31.001Z,97893.81
2023-01-21T19:53:32.689Z,97903.09
2023-01-21T19:56:34.710Z,97899.56
2023-01-21T19:59:36.319Z,97903.03
2023-01-21T20:02:37.870Z,97910.47
2023-01-21T20:05:39.973Z,97902.84
2023-01-21T20:08:43.730Z,97906.47
2023-01-21T20:11:45.426Z,97907.81
2023-01-21T20:14:46.987Z,97910.19
2023-01-21T20:17:53.101Z,97895.53
2023-01-21T20:20:55.011Z,97904.16
2023-01-21T20:23:56.536Z,97893.88
2023-01-21T20:26:59.261Z,97903.06
2023-01-21T20:30:15.755Z,97914.03
2023-01-21T20:33:20.690Z,97907.31
2023-01-21T20:36:25.288Z,97909.50
2023-01-21T20:39:26.900Z,97907.13
2023-01-21T20:42:28.478Z,97905.47
2023-01-21T20:45:42.415Z,97908.25
2023-01-21T20:48:44.583Z,97913.06
2023-01-21T20:51:46.165Z,97909.00
2023-01-21T20:54:47.782Z,97906.97
2023-01-21T20:57:49.896Z,97896.41
2023-01-21T21:00:51.890Z,97897.91
2023-01-21T21:03:53.526Z,97899.41
2023-01-21T21:06:55.134Z,97905.16
2023-01-21T21:09:57.773Z,97906.81
2023-01-21T21:13:00.332Z,97905.81
2023-01-21T21:16:02.890Z,97904.88
2023-01-21T21:19:04.783Z,97907.56
2023-01-21T21:22:06.628Z,97902.56
2023-01-21T21:25:13.287Z,97906.91
2023-01-21T21:28:17.165Z,97911.81
2023-01-21T21:31:18.755Z,97915.88
2023-01-21T21:34:23.839Z,97904.97
2023-01-21T21:37:25.469Z,97914.97
2023-01-21T21:40:30.738Z,97912.97
2023-01-21T21:43:32.336Z,97909.34
2023-01-21T21:46:52.498Z,97899.03
2023-01-21T21:49:54.092Z,97908.84
2023-01-21T21:52:55.640Z,97908.69
2023-01-21T21:56:05.270Z,97917.28
2023-01-21T21:59:06.934Z,97920.16
2023-01-21T22:02:12.415Z,97919.81
2023-01-21T22:05:14.129Z,97914.16
2023-01-21T22:08:16.173Z,97918.72
2023-01-21T22:11:19.804Z,97916.13
2023-01-21T22:14:21.321Z,97922.59
2023-01-21T22:17:22.834Z,97915.09
2023-01-21T22:20:24.335Z,97906.28
2023-01-21T22:23:25.869Z,97913.09
2023-01-21T22:26:30.882Z,97910.03
2023-01-21T22:29:32.664Z,97913.84
2023-01-21T22:32:34.186Z,97907.47
2023-01-21T22:35:35.787Z,97902.34
2023-01-21T22:38:40.513Z,97903.66
2023-01-21T22:41:42.224Z,97902.06
2023-01-21T22:44:43.748Z,97905.84
2023-01-21T22:47:45.387Z,97902.59
2023-01-21T22:50:52.388Z,97894.81
2023-01-21T22:53:54.127Z,97904.84
2023-01-21T22:56:55.580Z,97896.38
2023-01-21T22:59:57.202Z,97891.09
2023-01-21T23:02:58.669Z,97894.63
2023-01-21T23:06:08.402Z,97890.16
2023-01-21T23:09:14.137Z,97884.06
2023-01-21T23:12:18.816Z,97875.53
2023-01-21T23:15:21.970Z,97875.44
2023-01-21T23:18:25.880Z,97859.28
2023-01-21T23:21:27.391Z,97871.25
2023-01-21T23:24:28.844Z,97866.25
2023-01-21T23:27:30.314Z,97869.59
2023-01-21T23:30:33.711Z,97856.78
2023-01-21T23:33:35.730Z,97849.91
2023-01-21T23:36:37.262Z,97865.22
2023-01-21T23:39:38.808Z,97869.03
2023-01-21T23:42:40.868Z,97872.53
2023-01-21T23:45:42.477Z,97869.56
2023-01-21T23:48:44.191Z,97866.88
2023-01-21T23:51:47.272Z,97866.69
2023-01-21T23:54:48.847Z,97867.53
2023-01-21T23:57:50.429Z,97866.88
